Time;durP1;ratioP1;P1;durP2;ratioP2;P2;SDS_P1;SDS_P2;PMS_P1;PMS_P2;Temp;Humidity;BMP_temperature;BMP_pressure;BME280_temperature;BME280_humidity;BME280_pressure;Samples;Min_cycle;Max_cycle;Signal;HPM_P1;HPM_P2
2022/01/26 00:06:04;;;;;;;8.70;4.03;;;;;;;3.40;100.00;101740.55;5122784;57;1139107;-71
2022/01/26 00:11:04;;;;;;;8.37;3.93;;;;;;;3.33;100.00;101733.80;5122403;57;1137241;-74
2022/01/26 00:16:22;;;;;;;6.03;4.03;;;;;;;3.30;100.00;101729.95;5126894;57;1138940;-74
2022/01/26 00:21:28;;;;;;;7.30;4.17;;;;;;;3.31;100.00;101725.99;5146204;57;1139044;-80
2022/01/26 00:26:35;;;;;;;8.13;4.97;;;;;;;3.26;100.00;101712.63;5139382;57;1137020;-76
2022/01/26 00:42:25;;;;;;;20.37;7.47;;;;;;;3.25;100.00;101705.23;5135319;57;1137040;-76
2022/01/26 00:47:31;;;;;;;10.10;6.10;;;;;;;3.40;100.00;101722.25;5088269;57;1141101;-79
2022/01/26 00:52:42;;;;;;;12.97;7.60;;;;;;;3.52;100.00;101724.50;5051838;57;1141108;-74
2022/01/26 00:57:48;;;;;;;10.37;5.73;;;;;;;3.56;100.00;101713.50;5051713;57;1141161;-76
2022/01/26 01:02:57;;;;;;;9.78;5.05;;;;;;;3.58;100.00;101707.33;5062533;57;1141170;-75
2022/01/26 01:08:10;;;;;;;8.53;4.73;;;;;;;3.57;100.00;101706.92;5052562;57;1139159;-83
2022/01/26 01:13:19;;;;;;;13.33;6.77;;;;;;;3.54;100.00;101710.48;5051752;57;1139069;-81
2022/01/26 01:18:30;;;;;;;12.90;6.13;;;;;;;3.51;100.00;101698.80;5045273;57;1139091;-79
2022/01/26 01:34:16;;;;;;;8.33;4.23;;;;;;;3.47;100.00;101689.35;5049781;58;1139198;-73
2022/01/26 01:39:23;;;;;;;7.27;4.10;;;;;;;3.45;100.00;101695.07;5109581;58;1137213;-80
2022/01/26 01:44:29;;;;;;;9.10;3.67;;;;;;;3.40;100.00;101686.50;5028091;59;1137059;-76
2022/01/26 01:49:37;;;;;;;8.67;4.23;;;;;;;3.38;100.00;101688.30;5028154;59;1134882;-76
2022/01/26 01:54:49;;;;;;;9.90;4.37;;;;;;;3.33;100.00;101687.59;4972215;59;1134909;-79
2022/01/26 01:59:52;;;;;;;9.73;4.37;;;;;;;3.31;100.00;101685.47;4994472;59;1135375;-88
2022/01/26 02:04:59;;;;;;;5.67;3.40;;;;;;;3.31;100.00;101688.08;5019136;58;1134983;-77
2022/01/26 02:10:06;;;;;;;10.30;3.70;;;;;;;3.31;100.00;101688.53;4921901;59;1137247;-80
2022/01/26 02:15:18;;;;;;;11.10;3.43;;;;;;;3.31;100.00;101683.30;4951647;59;1138944;-72
2022/01/26 02:52:50;;;;;;;15.87;5.10;;;;;;;3.12;100.00;101671.20;5183950;57;1136968;-77
2022/01/26 03:03:00;;;;;;;8.80;4.30;;;;;;;3.09;100.00;101664.75;5185140;57;1139369;-79
2022/01/26 03:08:04;;;;;;;12.18;5.12;;;;;;;3.07;100.00;101667.41;5184400;57;1139577;-76
2022/01/26 03:13:15;;;;;;;9.50;4.63;;;;;;;3.05;100.00;101665.76;5185380;56;1141399;-82
2022/01/26 03:18:37;;;;;;;9.45;5.00;;;;;;;3.04;100.00;101669.27;5183789;57;1138940;-80
2022/01/26 03:34:25;;;;;;;14.73;5.93;;;;;;;3.03;100.00;101651.42;5120900;56;1139078;-83
2022/01/26 03:39:11;;;;;;;10.40;5.80;;;;;;;3.02;100.00;101649.70;5114275;56;1139066;-80
2022/01/26 03:44:18;;;;;;;11.70;6.00;;;;;;;3.02;100.00;101652.77;5120833;57;1139225;-74
2022/01/26 03:49:25;;;;;;;11.00;5.67;;;;;;;3.01;100.00;101661.06;5043260;57;1139294;-79
2022/01/26 03:54:32;;;;;;;11.93;6.43;;;;;;;3.01;100.00;101656.28;5144164;57;1139032;-74
2022/01/26 03:59:38;;;;;;;12.83;8.73;;;;;;;3.02;100.00;101653.63;5106690;58;1139027;-80
2022/01/26 04:04:50;;;;;;;23.90;19.00;;;;;;;3.06;100.00;101660.46;5106487;58;1141103;-82
2022/01/26 04:09:52;;;;;;;10.70;6.10;;;;;;;3.10;100.00;101654.70;5128647;57;1143483;-72
2022/01/26 04:15:06;;;;;;;19.73;9.03;;;;;;;3.13;100.00;101648.95;5069774;57;1141116;-76
2022/01/26 04:20:06;;;;;;;49.00;17.23;;;;;;;3.16;100.00;101645.39;5038298;57;1139085;-81
2022/01/26 04:25:14;;;;;;;46.67;18.77;;;;;;;3.22;100.00;101639.11;5070118;57;1141281;-69
2022/01/26 04:30:20;;;;;;;15.60;7.67;;;;;;;3.28;100.00;101642.41;5141010;57;1141212;-74
2022/01/26 04:35:26;;;;;;;16.10;7.40;;;;;;;3.31;100.00;101633.63;5122859;57;1137193;-77
2022/01/26 04:40:38;;;;;;;14.93;8.47;;;;;;;3.31;100.00;101625.78;5108911;58;1137107;-75
2022/01/26 04:45:39;;;;;;;14.67;9.00;;;;;;;3.29;100.00;101621.91;5165788;57;1137423;-76
2022/01/26 04:50:46;;;;;;;15.20;9.20;;;;;;;3.29;100.00;101611.45;5195738;56;1138965;-73
2022/01/26 04:55:52;;;;;;;18.03;10.60;;;;;;;3.30;100.00;101608.38;5195572;57;1139174;-79
2022/01/26 05:00:58;;;;;;;15.70;9.17;;;;;;;3.30;100.00;101600.09;5195473;57;1141433;-73
2022/01/26 05:06:05;;;;;;;11.75;8.03;;;;;;;3.33;100.00;101594.77;5195495;57;1139201;-76
2022/01/26 05:11:15;;;;;;;17.90;9.20;;;;;;;3.35;100.00;101589.50;4966296;57;1139164;-72
2022/01/26 05:16:17;;;;;;;12.40;8.90;;;;;;;3.36;100.00;101580.27;5195374;56;1138834;-77
2022/01/26 05:21:25;;;;;;;14.97;8.97;;;;;;;3.38;100.00;101582.84;5198211;56;1139284;-75
2022/01/26 05:26:31;;;;;;;12.00;7.83;;;;;;;3.40;100.00;101586.27;5047183;58;1139072;-74
2022/01/26 05:31:37;;;;;;;9.10;5.83;;;;;;;3.43;100.00;101577.03;5173485;57;1139102;-75
2022/01/26 05:36:43;;;;;;;9.17;6.90;;;;;;;3.46;100.00;101567.79;5109978;57;1135088;-78
2022/01/26 05:41:49;;;;;;;7.73;5.67;;;;;;;3.52;100.00;101568.43;5140747;56;1135211;-73
2022/01/26 05:46:55;;;;;;;7.47;6.00;;;;;;;3.52;100.00;101568.43;5195527;56;1132779;-76
2022/01/26 05:52:03;;;;;;;6.85;5.22;;;;;;;3.56;100.00;101566.58;5184992;57;1137255;-75
2022/01/26 05:57:11;;;;;;;6.37;4.67;;;;;;;3.59;100.00;101552.10;5045614;57;1137149;-73
2022/01/26 06:02:17;;;;;;;7.27;5.37;;;;;;;3.66;100.00;101554.94;5132536;56;1137094;-76
2022/01/26 06:07:26;;;;;;;3.50;3.20;;;;;;;3.70;100.00;101556.52;5117010;57;1139213;-69
2022/01/26 06:12:38;;;;;;;6.70;4.93;;;;;;;3.74;100.00;101555.98;5117233;57;1139030;-76
2022/01/26 06:17:39;;;;;;;7.40;4.50;;;;;;;3.80;100.00;101561.02;4974099;58;1139394;-76
2022/01/26 06:22:45;;;;;;;4.57;3.60;;;;;;;3.83;100.00;101560.90;4975833;58;1139144;-76
2022/01/26 06:27:55;;;;;;;4.90;4.47;;;;;;;3.87;100.00;101558.14;4984327;58;1139403;-71
2022/01/26 06:32:58;;;;;;;3.73;3.40;;;;;;;3.90;100.00;101561.11;4984149;58;1137326;-72
2022/01/26 06:38:04;;;;;;;3.87;3.00;;;;;;;3.93;100.00;101558.40;4983356;58;1137157;-76
2022/01/26 06:43:15;;;;;;;3.90;3.60;;;;;;;3.93;100.00;101548.37;4983436;58;1137493;-73
2022/01/26 06:53:43;;;;;;;;;;;;;;;4.01;100.00;101552.89;5048657;58;1137094;-81
2022/01/26 06:58:48;;;;;;;3.63;2.87;;;;;;;4.00;100.00;101545.48;4987267;59;974303;-77
2022/01/26 07:03:54;;;;;;;3.33;3.07;;;;;;;4.01;100.00;101545.89;4984671;59;1134292;-79
2022/01/26 07:09:00;;;;;;;8.23;4.20;;;;;;;4.03;100.00;101549.31;4985096;59;1137616;-81
2022/01/26 07:14:09;;;;;;;5.30;3.87;;;;;;;4.04;100.00;101541.87;4984341;59;1136978;-75
2022/01/26 07:24:37;;;;;;;4.95;3.30;;;;;;;4.07;100.00;101550.94;4978673;59;1136492;-81
2022/01/26 07:29:43;;;;;;;12.10;4.97;;;;;;;4.07;100.00;101552.23;4994734;58;1136824;-74
2022/01/26 07:34:49;;;;;;;9.10;5.40;;;;;;;4.08;100.00;101555.27;4986755;57;1139060;-78
2022/01/26 07:40:07;;;;;;;4.03;3.53;;;;;;;4.08;100.00;101553.09;4984070;57;1137176;-77
2022/01/26 07:45:12;;;;;;;4.00;3.27;;;;;;;4.07;100.00;101548.31;4979051;57;1136928;-71
2022/01/26 07:50:19;;;;;;;5.60;3.90;;;;;;;4.09;100.00;101552.19;4986294;58;1137105;-73
2022/01/26 07:55:25;;;;;;;4.43;3.20;;;;;;;4.10;100.00;101551.28;4987692;58;1136924;-73
2022/01/26 08:00:31;;;;;;;4.25;3.62;;;;;;;4.12;100.00;101547.71;4987394;58;1136951;-73
2022/01/26 08:05:37;;;;;;;11.50;5.10;;;;;;;4.13;100.00;101559.01;5015565;58;1137238;-76
2022/01/26 08:10:44;;;;;;;11.67;5.53;;;;;;;4.13;100.00;101559.86;5057482;57;1139077;-75
2022/01/26 08:15:50;;;;;;;4.50;3.43;;;;;;;4.13;100.00;101562.48;5068468;57;1139027;-73
2022/01/26 08:21:03;;;;;;;14.83;6.70;;;;;;;4.14;100.00;101568.58;5068522;57;1134903;-70
2022/01/26 08:26:05;;;;;;;9.20;5.27;;;;;;;4.16;100.00;101564.14;5076550;57;1139234;-77
2022/01/26 08:31:13;;;;;;;22.43;6.97;;;;;;;4.17;100.00;101565.86;5081102;57;1134859;-73
2022/01/26 08:36:21;;;;;;;4.57;3.47;;;;;;;4.18;100.00;101568.87;5080380;57;1139060;-78
2022/01/26 08:41:27;;;;;;;3.07;2.77;;;;;;;4.20;100.00;101563.14;5080301;57;1137519;-73
2022/01/26 08:46:32;;;;;;;4.43;3.00;;;;;;;4.19;100.00;101567.52;5050235;57;1135020;-78
2022/01/26 08:51:39;;;;;;;3.20;2.33;;;;;;;4.18;100.00;101559.27;4983443;58;1134911;-82
2022/01/26 08:56:45;;;;;;;3.73;3.20;;;;;;;4.20;100.00;101568.38;4934138;59;1134951;-75
2022/01/26 09:01:50;;;;;;;6.30;3.60;;;;;;;4.19;100.00;101563.59;4920140;58;1134677;-82
2022/01/26 09:07:00;;;;;;;9.67;4.90;;;;;;;4.19;100.00;101564.91;4908885;58;1134923;-69
2022/01/26 09:12:07;;;;;;;3.97;3.60;;;;;;;4.20;100.00;101570.55;4971359;58;1135190;-72
2022/01/26 09:17:12;;;;;;;4.40;3.63;;;;;;;4.19;100.00;101560.13;5056927;58;1134918;-71
2022/01/26 09:22:19;;;;;;;7.87;4.23;;;;;;;4.19;100.00;101566.66;5057126;58;1134970;-73
2022/01/26 09:27:25;;;;;;;6.07;3.20;;;;;;;4.21;100.00;101560.92;5057215;58;1134862;-76
2022/01/26 09:32:31;;;;;;;5.10;3.50;;;;;;;4.23;100.00;101548.19;5057098;58;1134935;-77
2022/01/26 09:37:37;;;;;;;4.35;3.20;;;;;;;4.25;100.00;101550.75;5056699;58;1135025;-77
2022/01/26 09:42:43;;;;;;;5.17;3.00;;;;;;;4.28;100.00;101545.87;5057220;58;1132901;-82
2022/01/26 09:47:49;;;;;;;12.03;7.67;;;;;;;4.31;100.00;101547.91;5076771;58;21217;-70
2022/01/26 09:52:56;;;;;;;25.37;13.93;;;;;;;4.32;100.00;101543.06;5061717;57;1135007;-83
2022/01/26 09:58:02;;;;;;;10.30;5.57;;;;;;;4.34;100.00;101545.18;5056958;58;1141172;-75
2022/01/26 10:03:08;;;;;;;45.85;19.95;;;;;;;4.31;100.00;101550.52;5061525;57;1139079;-78
2022/01/26 10:19:00;;;;;;;8.47;6.27;;;;;;;4.22;100.00;101553.02;5057963;58;1139059;-77
2022/01/26 10:24:13;;;;;;;7.97;6.10;;;;;;;4.23;100.00;101544.71;5061930;57;1136979;-75
2022/01/26 10:29:19;;;;;;;8.93;6.42;;;;;;;4.21;100.00;101550.00;5064536;58;1137132;-74
2022/01/26 10:34:25;;;;;;;29.27;15.37;;;;;;;4.16;100.00;101548.44;5011256;58;1137204;-78
2022/01/26 10:39:44;;;;;;;68.67;27.27;;;;;;;4.11;100.00;101538.60;5221695;56;1141148;-71
2022/01/26 10:45:00;;;;;;;;;;;;;;;4.03;100.00;101520.52;5226258;55;1141077;-72
2022/01/26 10:50:18;;;;;;;7.90;4.80;;;;;;;4.07;100.00;101530.45;5313593;55;974244;-75
2022/01/26 10:55:09;;;;;;;4.40;3.87;;;;;;;4.06;100.00;101516.95;5208333;56;1134938;-76
2022/01/26 11:00:16;;;;;;;5.87;3.77;;;;;;;4.04;100.00;101517.00;5309607;55;1137063;-78
2022/01/26 11:05:23;;;;;;;6.17;3.40;;;;;;;4.08;100.00;101522.99;5208247;56;1137084;-75
2022/01/26 11:10:38;;;;;;;10.83;4.87;;;;;;;4.07;100.00;101513.42;5309642;55;1137259;-75
2022/01/26 11:15:44;;;;;;;5.07;4.17;;;;;;;4.05;100.00;101507.39;5207743;56;1139037;-79
2022/01/26 11:20:54;;;;;;;13.23;10.27;;;;;;;3.99;100.00;101520.22;5309428;55;1136997;-74
2022/01/26 11:25:59;;;;;;;6.50;4.27;;;;;;;3.95;100.00;101512.09;5304299;55;1141221;-73
2022/01/26 11:31:07;;;;;;;6.23;3.50;;;;;;;3.97;100.00;101520.76;5144925;56;1136971;-77
2022/01/26 11:36:16;;;;;;;4.13;2.97;;;;;;;3.96;100.00;101508.58;5141589;57;1137152;-72
2022/01/26 11:46:55;;;;;;;3.93;2.53;;;;;;;3.87;100.00;101512.34;5103903;57;1134928;-74
2022/01/26 11:52:01;;;;;;;2.17;1.97;;;;;;;3.92;100.00;101504.80;5061291;57;1134998;-77
2022/01/26 11:57:14;;;;;;;3.07;2.60;;;;;;;3.96;100.00;101507.72;5060768;57;1134849;-79
2022/01/26 12:02:38;;;;;;;4.37;2.67;;;;;;;3.98;100.00;101507.19;5060589;57;1134925;-71
2022/01/26 12:08:00;;;;;;;3.97;3.20;;;;;;;3.97;100.00;101508.98;5056032;58;1135213;-69
2022/01/26 12:13:10;;;;;;;4.30;3.90;;;;;;;3.87;100.00;101508.41;5072175;57;1134878;-73
2022/01/26 12:18:31;;;;;;;4.87;3.33;;;;;;;3.81;100.00;101498.63;5067738;58;1132853;-79
2022/01/26 12:34:47;;;;;;;4.73;3.37;;;;;;;3.71;100.00;101486.30;5070445;57;1136825;-80
2022/01/26 12:45:26;;;;;;;8.67;4.57;;;;;;;3.64;100.00;101476.96;5081812;57;1139117;-74
2022/01/26 12:50:32;;;;;;;5.28;3.50;;;;;;;3.67;100.00;101473.36;5151305;57;1137059;-73
2022/01/26 12:55:39;;;;;;;5.20;3.40;;;;;;;3.63;100.00;101467.40;5072268;57;1136964;-80
2022/01/26 13:00:46;;;;;;;4.83;4.23;;;;;;;3.63;100.00;101454.32;5151479;57;1136988;-75
2022/01/26 13:05:52;;;;;;;3.17;2.77;;;;;;;3.64;100.00;101456.48;5072155;57;1136966;-78
2022/01/26 13:11:04;;;;;;;4.47;2.67;;;;;;;3.66;100.00;101457.30;5151346;57;1136970;-79
2022/01/26 13:16:22;;;;;;;4.67;3.15;;;;;;;3.65;100.00;101456.44;5072372;57;1136943;-74
2022/01/26 13:27:07;;;;;;;3.13;2.27;;;;;;;3.64;100.00;101432.94;5071981;57;1137162;-81
2022/01/26 13:37:33;;;;;;;2.70;2.33;;;;;;;3.57;100.00;101438.83;5048255;58;1135150;-73
2022/01/26 13:52:54;;;;;;;1.67;1.47;;;;;;;3.47;100.00;101437.44;5043838;58;1135044;-77
2022/01/26 13:58:24;;;;;;;1.87;1.73;;;;;;;3.44;100.00;101424.45;5043969;58;1135048;-75
2022/01/26 14:03:16;;;;;;;1.97;1.77;;;;;;;3.34;100.00;101420.45;5044701;58;1134881;-79
2022/01/26 14:08:21;;;;;;;3.13;2.17;;;;;;;3.30;100.00;101404.00;5044110;58;1134847;-85
2022/01/26 14:13:27;;;;;;;13.53;10.77;;;;;;;3.25;100.00;101390.67;5043636;58;1134852;-73
2022/01/26 14:18:46;;;;;;;7.73;6.17;;;;;;;3.22;100.00;101386.85;5043559;58;1139330;-79
2022/01/26 14:28:55;;;;;;;68.33;25.03;;;;;;;3.12;100.00;101368.02;5043710;58;1139099;-78
2022/01/26 14:34:34;;;;;;;10.28;6.87;;;;;;;3.08;100.00;101378.16;5043562;58;1141122;-82
2022/01/26 14:40:26;;;;;;;18.73;10.77;;;;;;;3.03;100.00;101374.87;5044489;58;1138967;-70
2022/01/26 14:55:51;;;;;;;161.40;65.30;;;;;;;2.94;100.00;101368.62;5048136;58;1145289;-82
2022/01/26 15:01:02;;;;;;;72.93;43.60;;;;;;;2.90;100.00;101369.64;5122862;57;1143194;-78
2022/01/26 15:43:51;;;;;;;77.73;32.17;;;;;;;2.64;100.00;101361.30;5323166;55;972183;-72
2022/01/26 15:49:23;;;;;;;90.90;27.73;;;;;;;2.62;100.00;101360.05;5247473;55;1136859;-72
2022/01/26 16:21:08;;;;;;;45.57;18.60;;;;;;;2.45;100.00;101350.58;5145635;57;1141104;-70
2022/01/26 17:25:28;;;;;;;11.65;5.67;;;;;;;2.10;100.00;101296.41;5320763;55;1141006;-71
2022/01/26 18:50:13;;;;;;;8.40;5.15;;;;;;;1.88;100.00;101298.39;5155726;57;1139160;-71
2022/01/26 18:55:19;;;;;;;32.67;15.40;;;;;;;1.86;100.00;101293.21;5150963;57;1136923;-71
2022/01/26 19:00:25;;;;;;;31.43;15.47;;;;;;;1.83;100.00;101275.07;5071526;57;1140983;-70
2022/01/26 19:05:31;;;;;;;18.10;7.10;;;;;;;1.82;100.00;101290.31;5151049;57;1141329;-83
2022/01/26 19:10:36;;;;;;;8.47;4.80;;;;;;;1.83;100.00;101298.99;5039157;58;1139007;-76
2022/01/26 19:15:42;;;;;;;59.47;15.23;;;;;;;1.81;100.00;101299.48;5123293;57;1136922;-75
2022/01/26 19:21:02;;;;;;;60.67;15.10;;;;;;;1.77;100.00;101294.80;5067387;58;1141070;-78
2022/01/26 19:26:09;;;;;;;61.83;13.50;;;;;;;1.73;100.00;101278.38;5065228;58;1141116;-74
2022/01/26 19:52:13;;;;;;;344.23;157.93;;;;;;;1.55;100.00;101240.24;4943800;58;1139007;-69
2022/01/26 19:57:19;;;;;;;145.47;49.17;;;;;;;1.52;100.00;101237.30;4960271;58;1145181;-72
2022/01/26 20:02:25;;;;;;;20.77;7.90;;;;;;;1.51;100.00;101231.69;5053728;58;1143306;-79
2022/01/26 20:07:32;;;;;;;36.33;13.70;;;;;;;1.52;100.00;101241.66;5063325;58;1138956;-76
2022/01/26 20:12:45;;;;;;;22.53;8.07;;;;;;;1.53;100.00;101268.14;5066186;57;1141306;-79
2022/01/26 20:17:46;;;;;;;33.73;10.03;;;;;;;1.52;100.00;101280.77;5068795;57;1139015;-80
2022/01/26 20:22:53;;;;;;;36.63;10.43;;;;;;;1.51;100.00;101263.41;5067598;57;1141076;-78
2022/01/26 20:28:05;;;;;;;21.23;7.37;;;;;;;1.50;100.00;101249.52;5068142;57;1141203;-80
2022/01/26 20:33:07;;;;;;;29.70;11.13;;;;;;;1.49;100.00;101236.53;5090320;57;1138992;-73
2022/01/26 20:38:13;;;;;;;31.50;11.47;;;;;;;1.48;100.00;101230.46;5141789;57;1141071;-70
2022/01/26 20:43:18;;;;;;;24.43;10.10;;;;;;;1.48;100.00;101239.59;5242854;55;1141512;-78
2022/01/26 20:48:24;;;;;;;42.50;14.27;;;;;;;1.46;100.00;101243.13;5257585;55;1138989;-76
2022/01/26 20:53:29;;;;;;;29.13;10.30;;;;;;;1.49;100.00;101258.23;5271784;55;1139107;-67
2022/01/26 20:58:35;;;;;;;27.52;9.03;;;;;;;1.49;100.00;101268.66;5261963;55;1139289;-71
2022/01/26 21:03:42;;;;;;;74.30;22.20;;;;;;;1.45;100.00;101263.13;5243128;55;1136940;-70
2022/01/26 21:08:48;;;;;;;39.30;17.80;;;;;;;1.44;100.00;101261.86;5274386;55;1138987;-70
2022/01/26 21:13:54;;;;;;;38.27;12.80;;;;;;;1.40;100.00;101215.03;5270207;55;1139306;-70
2022/01/26 21:19:00;;;;;;;35.67;12.77;;;;;;;1.40;100.00;101222.84;5299774;55;1138963;-69
2022/01/26 21:24:06;;;;;;;37.47;11.90;;;;;;;1.40;100.00;101239.79;5319016;55;1138832;-70
2022/01/26 21:29:12;;;;;;;32.00;11.57;;;;;;;1.39;100.00;101238.52;5275208;55;1139037;-68
2022/01/26 21:34:18;;;;;;;34.90;11.13;;;;;;;1.39;100.00;101244.59;5241280;56;1139086;-69
2022/01/26 21:39:24;;;;;;;28.17;10.17;;;;;;;1.40;100.00;101249.36;5240782;56;1139071;-68
2022/01/26 21:44:31;;;;;;;32.13;10.57;;;;;;;1.40;100.00;101239.79;5240826;56;1138967;-70
2022/01/26 21:49:38;;;;;;;39.97;12.00;;;;;;;1.37;100.00;101233.39;5329028;55;1138927;-68
2022/01/26 21:54:43;;;;;;;31.30;10.90;;;;;;;1.38;100.00;101248.54;5102667;57;1139080;-68
2022/01/26 21:59:49;;;;;;;40.95;14.07;;;;;;;1.38;100.00;101248.09;5329429;55;1139217;-70
2022/01/26 22:04:55;;;;;;;37.50;13.40;;;;;;;1.40;100.00;101238.93;5140866;57;1138896;-68
2022/01/26 22:10:01;;;;;;;49.77;17.50;;;;;;;1.40;100.00;101224.15;5329260;55;1138890;-69
2022/01/26 22:15:07;;;;;;;36.10;12.83;;;;;;;1.40;100.00;101227.20;5141029;57;1138424;-68
2022/01/26 22:20:13;;;;;;;33.70;11.67;;;;;;;1.39;100.00;101223.74;5329404;55;1137080;-69
2022/01/26 22:25:25;;;;;;;40.93;15.43;;;;;;;1.38;100.00;101210.30;5142066;57;1136943;-70
2022/01/26 22:30:29;;;;;;;38.80;12.50;;;;;;;1.39;100.00;101198.12;5330271;55;1141131;-67
2022/01/26 22:35:36;;;;;;;44.37;13.77;;;;;;;1.40;100.00;101192.87;5134799;57;1141361;-67
2022/01/26 22:40:43;;;;;;;38.43;14.20;;;;;;;1.41;100.00;101202.41;5079398;57;1141361;-70
2022/01/26 22:45:50;;;;;;;52.33;15.93;;;;;;;1.40;100.00;101196.78;5145258;57;1141232;-68
2022/01/26 22:51:01;;;;;;;59.13;19.33;;;;;;;1.39;100.00;101185.95;4998194;58;1141151;-70
2022/01/26 22:56:07;;;;;;;38.63;12.47;;;;;;;1.39;100.00;101174.22;5079130;57;1141003;-70
2022/01/26 23:06:23;;;;;;;53.67;17.53;;;;;;;1.40;100.00;101181.59;5079139;57;1141154;-68
2022/01/26 23:11:34;;;;;;;62.97;19.97;;;;;;;1.40;100.00;101175.08;5079075;57;1141111;-68
2022/01/26 23:16:40;;;;;;;77.77;22.37;;;;;;;1.43;100.00;101170.23;4992139;58;1141107;-68
2022/01/26 23:21:45;;;;;;;61.43;20.60;;;;;;;1.44;100.00;101149.79;4998103;58;1141047;-69
2022/01/26 23:27:02;;;;;;;52.43;15.17;;;;;;;1.46;100.00;101148.84;5079096;57;1141116;-70
2022/01/26 23:32:33;;;;;;;50.80;14.97;;;;;;;1.47;100.00;101140.12;5079933;57;1141117;-69
